Time;durP1;ratioP1;P1;durP2;ratioP2;P2;SDS_P1;SDS_P2;PMS_P1;PMS_P2;Temp;Humidity;BMP_temperature;BMP_pressure;BME280_temperature;BME280_humidity;BME280_pressure;Samples;Min_cycle;Max_cycle;Signal;HPM_P1;HPM_P2
2021/10/01 00:00:47;;;;;;;2.50;2.00;;;;;;;;;;5030481;28;20072;-86
2021/10/01 00:03:43;;;;;;;2.93;1.90;;;;;;;;;;5013791;28;20025;-85
2021/10/01 00:06:13;;;;;;;2.23;2.00;;;;;;;;;;5014176;28;20072;-85
2021/10/01 00:08:39;;;;;;;4.20;1.90;;;;;;;;;;5015226;28;20405;-84
2021/10/01 00:11:04;;;;;;;3.67;1.70;;;;;;;;;;5027093;28;20041;-85
2021/10/01 00:13:30;;;;;;;2.03;1.90;;;;;;;;;;5030375;28;20092;-85
2021/10/01 00:15:57;;;;;;;3.10;2.27;;;;;;;;;;5014520;28;20021;-85
2021/10/01 00:18:23;;;;;;;4.13;2.23;;;;;;;;;;5018108;28;20030;-86
2021/10/01 00:20:51;;;;;;;1.80;1.50;;;;;;;;;;5031109;28;20028;-86
2021/10/01 00:23:16;;;;;;;2.87;2.03;;;;;;;;;;5028148;28;20033;-86
2021/10/01 00:25:43;;;;;;;2.83;1.83;;;;;;;;;;5016390;28;20014;-85
2021/10/01 00:28:08;;;;;;;3.17;1.77;;;;;;;;;;5014019;28;20127;-85
2021/10/01 00:30:34;;;;;;;2.73;1.87;;;;;;;;;;5012361;28;20437;-84
2021/10/01 00:32:59;;;;;;;1.80;1.70;;;;;;;;;;5013520;28;20513;-85
2021/10/01 00:35:24;;;;;;;3.00;1.77;;;;;;;;;;5034207;28;20028;-84
2021/10/01 00:37:50;;;;;;;1.77;1.67;;;;;;;;;;5028025;28;20057;-85
2021/10/01 00:40:15;;;;;;;2.73;1.53;;;;;;;;;;5014724;28;20014;-85
2021/10/01 00:42:41;;;;;;;2.23;1.87;;;;;;;;;;5012495;28;20468;-86
2021/10/01 00:45:07;;;;;;;1.80;1.70;;;;;;;;;;5013983;28;20026;-86
2021/10/01 00:47:32;;;;;;;3.57;2.00;;;;;;;;;;5014071;28;20073;-86
2021/10/01 00:49:57;;;;;;;1.83;1.60;;;;;;;;;;5014780;28;20064;-86
2021/10/01 00:52:23;;;;;;;1.90;1.80;;;;;;;;;;5014228;28;20037;-85
2021/10/01 00:54:49;;;;;;;2.90;1.70;;;;;;;;;;5017260;28;20478;-86
2021/10/01 00:57:15;;;;;;;3.90;1.80;;;;;;;;;;5016890;28;20052;-86
2021/10/01 00:59:40;;;;;;;2.23;1.87;;;;;;;;;;5017309;28;20022;-86
2021/10/01 01:02:06;;;;;;;4.03;2.10;;;;;;;;;;5053851;28;20056;-85
2021/10/01 01:04:32;;;;;;;2.13;1.67;;;;;;;;;;5053192;28;20029;-85
2021/10/01 01:07:06;;;;;;;1.97;1.70;;;;;;;;;;5062562;28;20025;-86
2021/10/01 01:09:50;;;;;;;1.73;1.55;;;;;;;;;;5074246;28;20016;-85
2021/10/01 01:12:34;;;;;;;2.90;1.83;;;;;;;;;;5065136;28;20029;-87
2021/10/01 01:15:05;;;;;;;4.70;1.80;;;;;;;;;;5060955;28;20084;-85
2021/10/01 01:17:50;;;;;;;4.07;1.80;;;;;;;;;;5052575;28;20479;-86
2021/10/01 01:20:21;;;;;;;5.87;2.03;;;;;;;;;;5053963;28;20025;-86
2021/10/01 01:22:51;;;;;;;2.40;1.57;;;;;;;;;;5060475;28;20112;-85
2021/10/01 01:25:35;;;;;;;2.40;1.70;;;;;;;;;;5072139;28;20052;-85
2021/10/01 01:28:05;;;;;;;4.47;1.70;;;;;;;;;;5074384;28;20033;-85
2021/10/01 01:30:35;;;;;;;3.43;2.07;;;;;;;;;;5074825;28;20013;-84
2021/10/01 01:33:02;;;;;;;3.80;1.93;;;;;;;;;;5072961;28;20045;-85
2021/10/01 01:35:33;;;;;;;2.17;1.70;;;;;;;;;;5062107;28;20605;-86
2021/10/01 01:38:00;;;;;;;1.70;1.60;;;;;;;;;;5055444;28;20028;-86
2021/10/01 01:40:27;;;;;;;2.67;2.00;;;;;;;;;;5057644;28;20025;-87
2021/10/01 01:42:54;;;;;;;1.93;1.83;;;;;;;;;;5056674;28;20017;-86
2021/10/01 01:45:20;;;;;;;1.50;1.40;;;;;;;;;;5059090;28;20426;-86
2021/10/01 01:47:47;;;;;;;2.03;1.83;;;;;;;;;;5060538;28;20021;-87
2021/10/01 01:50:14;;;;;;;2.60;2.40;;;;;;;;;;5056357;28;20031;-85
2021/10/01 01:52:41;;;;;;;3.60;1.70;;;;;;;;;;5057474;28;20029;-87
2021/10/01 01:55:07;;;;;;;3.53;2.00;;;;;;;;;;5059819;28;20025;-87
2021/10/01 01:57:32;;;;;;;1.97;1.53;;;;;;;;;;5066709;28;20009;-85
2021/10/01 01:59:58;;;;;;;1.80;1.70;;;;;;;;;;5077108;28;20075;-86
2021/10/01 02:02:24;;;;;;;4.57;1.80;;;;;;;;;;5069751;28;20061;-88
2021/10/01 02:04:50;;;;;;;2.23;1.80;;;;;;;;;;5061444;28;20310;-87
2021/10/01 02:07:18;;;;;;;2.63;1.63;;;;;;;;;;5058255;28;20104;-86
2021/10/01 02:09:44;;;;;;;1.80;1.70;;;;;;;;;;5056865;28;20025;-86
2021/10/01 02:12:10;;;;;;;2.17;2.07;;;;;;;;;;5058691;28;20024;-87
2021/10/01 02:14:39;;;;;;;3.07;1.30;;;;;;;;;;5058382;28;20090;-87
2021/10/01 02:17:08;;;;;;;1.60;1.50;;;;;;;;;;5058064;28;20075;-86
2021/10/01 02:19:34;;;;;;;1.60;1.50;;;;;;;;;;5055849;28;20115;-87
2021/10/01 02:22:00;;;;;;;1.67;1.57;;;;;;;;;;5057430;28;20109;-86
2021/10/01 02:24:28;;;;;;;2.13;1.40;;;;;;;;;;5056371;28;20033;-86
2021/10/01 02:27:12;;;;;;;4.10;1.50;;;;;;;;;;5055722;28;20023;-87
2021/10/01 02:29:43;;;;;;;2.93;1.87;;;;;;;;;;5054750;28;20399;-85
2021/10/01 02:32:28;;;;;;;1.40;1.30;;;;;;;;;;5070953;28;20287;-86
2021/10/01 02:34:53;;;;;;;3.43;1.87;;;;;;;;;;5076938;28;20020;-87
2021/10/01 02:37:19;;;;;;;2.63;1.80;;;;;;;;;;5076732;28;20009;-84
2021/10/01 02:39:46;;;;;;;1.50;1.40;;;;;;;;;;5046275;28;20475;-85
2021/10/01 02:42:12;;;;;;;1.47;1.37;;;;;;;;;;5053355;28;20028;-84
2021/10/01 02:44:38;;;;;;;2.57;2.00;;;;;;;;;;5056400;28;20172;-84
2021/10/01 02:47:04;;;;;;;2.43;2.20;;;;;;;;;;5055199;28;20053;-86
2021/10/01 02:49:30;;;;;;;2.20;2.00;;;;;;;;;;5057921;28;20053;-84
2021/10/01 02:51:57;;;;;;;2.00;1.90;;;;;;;;;;5074078;28;20059;-84
2021/10/01 02:54:32;;;;;;;2.73;2.23;;;;;;;;;;5060969;28;20083;-85
2021/10/01 02:57:01;;;;;;;2.35;2.08;;;;;;;;;;5053957;28;20017;-85
2021/10/01 02:59:28;;;;;;;4.13;2.10;;;;;;;;;;5056507;28;20044;-84
2021/10/01 03:01:55;;;;;;;3.33;2.00;;;;;;;;;;5056592;28;20045;-85
2021/10/01 03:04:25;;;;;;;1.87;1.73;;;;;;;;;;5057977;28;20106;-84
2021/10/01 03:06:51;;;;;;;3.33;2.20;;;;;;;;;;5076751;28;20400;-84
2021/10/01 03:09:17;;;;;;;3.27;2.37;;;;;;;;;;5077132;28;20018;-84
2021/10/01 03:11:42;;;;;;;2.47;1.93;;;;;;;;;;5077250;28;20084;-85
2021/10/01 03:14:08;;;;;;;2.37;2.17;;;;;;;;;;5066580;28;20074;-85
2021/10/01 03:16:35;;;;;;;5.50;2.23;;;;;;;;;;5076731;28;20013;-85
2021/10/01 03:19:02;;;;;;;2.40;2.17;;;;;;;;;;5076564;28;20029;-84
2021/10/01 03:21:28;;;;;;;4.73;3.00;;;;;;;;;;5077620;28;20017;-84
2021/10/01 03:23:54;;;;;;;3.53;3.03;;;;;;;;;;5077378;28;20024;-85
2021/10/01 03:26:20;;;;;;;3.60;3.07;;;;;;;;;;5076482;28;20032;-85
2021/10/01 03:28:46;;;;;;;3.70;2.90;;;;;;;;;;5058936;28;20104;-84
2021/10/01 03:31:12;;;;;;;6.33;2.90;;;;;;;;;;5077548;28;20032;-85
2021/10/01 03:33:39;;;;;;;4.67;2.83;;;;;;;;;;5077472;28;20032;-86
2021/10/01 03:36:05;;;;;;;5.07;3.23;;;;;;;;;;5042077;28;20029;-86
2021/10/01 03:38:30;;;;;;;5.53;3.40;;;;;;;;;;5053694;28;20359;-86
2021/10/01 03:40:57;;;;;;;2.87;2.63;;;;;;;;;;5056085;28;20025;-86
2021/10/01 03:43:24;;;;;;;6.53;2.50;;;;;;;;;;5056554;28;20376;-86
2021/10/01 03:45:50;;;;;;;3.33;2.77;;;;;;;;;;5055690;28;20028;-86
2021/10/01 03:48:15;;;;;;;3.43;2.53;;;;;;;;;;5053859;28;20032;-87
2021/10/01 03:50:41;;;;;;;2.40;2.20;;;;;;;;;;5068993;28;20017;-86
2021/10/01 03:53:09;;;;;;;2.90;2.43;;;;;;;;;;5077187;28;20043;-85
2021/10/01 03:55:39;;;;;;;2.70;2.50;;;;;;;;;;5075158;28;20019;-85
2021/10/01 03:58:06;;;;;;;3.30;3.00;;;;;;;;;;5075272;28;20036;-86
2021/10/01 04:00:31;;;;;;;2.60;2.20;;;;;;;;;;5076987;28;20061;-87
2021/10/01 04:02:56;;;;;;;3.73;2.00;;;;;;;;;;5059600;28;20039;-86
2021/10/01 04:05:22;;;;;;;2.87;2.60;;;;;;;;;;5069977;28;20028;-87
2021/10/01 04:07:47;;;;;;;3.20;2.47;;;;;;;;;;5065902;28;20092;-87
2021/10/01 04:10:13;;;;;;;3.77;2.57;;;;;;;;;;5066766;28;20040;-86
2021/10/01 04:12:38;;;;;;;4.33;2.00;;;;;;;;;;5066045;28;20017;-87
2021/10/01 04:15:05;;;;;;;4.07;2.40;;;;;;;;;;5064456;28;20090;-85
2021/10/01 04:17:30;;;;;;;3.93;2.30;;;;;;;;;;5069407;28;20021;-86
2021/10/01 04:19:57;;;;;;;3.93;2.67;;;;;;;;;;5064512;28;20033;-85
2021/10/01 04:22:25;;;;;;;3.20;2.83;;;;;;;;;;5058800;28;20039;-84
2021/10/01 04:24:51;;;;;;;3.17;2.97;;;;;;;;;;5056619;28;20064;-84
2021/10/01 04:27:16;;;;;;;3.47;3.17;;;;;;;;;;5055756;28;20024;-84
2021/10/01 04:29:43;;;;;;;3.93;2.60;;;;;;;;;;5056577;28;20086;-85
2021/10/01 04:32:08;;;;;;;6.97;2.90;;;;;;;;;;5055561;28;20032;-85
2021/10/01 04:34:41;;;;;;;3.80;2.63;;;;;;;;;;5055304;28;20021;-84
2021/10/01 04:37:06;;;;;;;3.10;2.20;;;;;;;;;;5036159;28;20024;-83
2021/10/01 04:39:32;;;;;;;4.03;2.73;;;;;;;;;;5055735;28;20021;-85
2021/10/01 04:41:57;;;;;;;4.47;2.50;;;;;;;;;;5054926;28;20029;-85
2021/10/01 04:44:23;;;;;;;4.30;2.67;;;;;;;;;;5037875;28;20025;-85
2021/10/01 04:46:49;;;;;;;3.57;3.03;;;;;;;;;;5062267;28;20013;-85
2021/10/01 04:49:15;;;;;;;3.53;2.60;;;;;;;;;;5076533;28;20021;-83
2021/10/01 04:51:40;;;;;;;4.20;2.87;;;;;;;;;;5061677;28;20037;-85
2021/10/01 04:54:05;;;;;;;3.27;2.30;;;;;;;;;;5059711;28;20068;-84
2021/10/01 04:56:30;;;;;;;6.00;2.77;;;;;;;;;;5060209;28;20017;-85
2021/10/01 04:58:56;;;;;;;3.80;2.30;;;;;;;;;;5058028;28;20154;-84
2021/10/01 05:01:21;;;;;;;3.67;2.70;;;;;;;;;;5061689;28;20029;-84
2021/10/01 05:03:47;;;;;;;5.23;2.30;;;;;;;;;;5073607;28;20036;-86
2021/10/01 05:06:15;;;;;;;5.20;2.43;;;;;;;;;;5043536;28;20085;-88
2021/10/01 05:08:41;;;;;;;2.53;2.17;;;;;;;;;;5021773;28;20464;-86
2021/10/01 05:11:08;;;;;;;3.33;2.60;;;;;;;;;;5055063;28;20037;-85
2021/10/01 05:13:33;;;;;;;3.10;2.60;;;;;;;;;;5061316;28;20020;-84
2021/10/01 05:16:01;;;;;;;2.90;2.70;;;;;;;;;;5055531;28;20053;-83
2021/10/01 05:18:28;;;;;;;5.67;2.70;;;;;;;;;;5057490;28;20033;-84
2021/10/01 05:20:53;;;;;;;3.43;2.13;;;;;;;;;;5065475;28;20017;-84
2021/10/01 05:23:20;;;;;;;5.40;2.30;;;;;;;;;;5074277;28;20017;-85
2021/10/01 05:25:45;;;;;;;5.93;3.67;;;;;;;;;;5063751;28;20025;-84
2021/10/01 05:28:10;;;;;;;2.63;2.00;;;;;;;;;;5060079;28;20462;-85
2021/10/01 05:30:41;;;;;;;3.30;3.00;;;;;;;;;;5058500;28;20023;-85
2021/10/01 05:33:07;;;;;;;4.27;2.33;;;;;;;;;;5054634;28;20060;-86
2021/10/01 05:35:35;;;;;;;5.47;2.77;;;;;;;;;;5053907;28;20634;-85
2021/10/01 05:38:05;;;;;;;3.43;3.00;;;;;;;;;;5063015;28;20037;-87
2021/10/01 05:40:30;;;;;;;6.37;2.80;;;;;;;;;;5057671;28;20459;-85
2021/10/01 05:42:55;;;;;;;7.13;3.60;;;;;;;;;;5051419;28;20166;-87
2021/10/01 05:45:21;;;;;;;3.23;2.90;;;;;;;;;;5052660;28;20364;-85
2021/10/01 05:47:47;;;;;;;4.93;3.40;;;;;;;;;;5052537;28;20023;-85
2021/10/01 05:50:15;;;;;;;3.70;3.40;;;;;;;;;;5054658;28;20028;-84
2021/10/01 05:55:09;;;;;;;4.03;3.30;;;;;;;;;;5051356;28;20115;-85
2021/10/01 05:57:37;;;;;;;5.47;3.80;;;;;;;;;;5051635;28;20475;-87
2021/10/01 06:00:04;;;;;;;9.17;4.07;;;;;;;;;;5051210;28;20017;-86
2021/10/01 06:02:30;;;;;;;4.00;3.60;;;;;;;;;;5023276;28;20082;-86
2021/10/01 06:04:55;;;;;;;3.70;3.20;;;;;;;;;;5032756;28;20034;-85
2021/10/01 06:07:21;;;;;;;4.83;3.53;;;;;;;;;;5033028;28;20029;-86
2021/10/01 06:09:47;;;;;;;5.47;3.80;;;;;;;;;;5018595;28;20029;-86
2021/10/01 06:12:13;;;;;;;4.80;4.37;;;;;;;;;;5014699;28;20026;-87
2021/10/01 06:14:39;;;;;;;5.20;4.20;;;;;;;;;;5016997;28;20064;-87
2021/10/01 06:17:05;;;;;;;6.97;4.30;;;;;;;;;;5014490;28;20053;-86
2021/10/01 06:19:32;;;;;;;5.63;4.43;;;;;;;;;;5015323;28;20084;-87
2021/10/01 06:22:01;;;;;;;4.67;4.00;;;;;;;;;;5012996;28;20042;-87
2021/10/01 06:24:27;;;;;;;6.40;4.67;;;;;;;;;;5014034;28;20045;-85
2021/10/01 06:26:53;;;;;;;6.97;5.00;;;;;;;;;;5013668;28;20032;-87
2021/10/01 06:29:18;;;;;;;6.37;5.13;;;;;;;;;;5012592;28;20030;-87
2021/10/01 06:31:44;;;;;;;8.43;6.30;;;;;;;;;;5011192;28;20026;-87
2021/10/01 06:34:10;;;;;;;7.10;5.60;;;;;;;;;;5014757;28;20026;-84
2021/10/01 06:36:41;;;;;;;5.57;4.97;;;;;;;;;;5016635;28;20022;-85
2021/10/01 06:39:06;;;;;;;8.50;5.40;;;;;;;;;;5014011;28;20053;-86
2021/10/01 06:41:32;;;;;;;6.00;4.47;;;;;;;;;;5014420;28;20506;-86
2021/10/01 06:44:02;;;;;;;7.80;5.20;;;;;;;;;;5012292;28;20207;-85
2021/10/01 06:49:44;;;;;;;5.90;4.70;;;;;;;;;;4952871;28;20502;-85
2021/10/01 07:45:15;;;;;;;6.53;4.07;;;;;;;;;;4958258;28;20043;-84
2021/10/01 08:20:23;;;;;;;3.55;2.30;;;;;;;;;;5008775;28;20029;-84
2021/10/01 08:22:48;;;;;;;2.08;1.98;;;;;;;;;;5016707;28;20022;-84
2021/10/01 08:25:16;;;;;;;2.63;2.42;;;;;;;;;;5025722;28;20056;-85
2021/10/01 08:27:42;;;;;;;2.65;1.90;;;;;;;;;;5015735;28;20013;-85
2021/10/01 08:30:08;;;;;;;3.08;2.80;;;;;;;;;;5015494;28;20061;-85
2021/10/01 08:32:34;;;;;;;4.90;3.25;;;;;;;;;;5017394;28;20401;-85
2021/10/01 08:34:59;;;;;;;3.42;2.75;;;;;;;;;;5016741;28;20018;-85
2021/10/01 08:37:24;;;;;;;3.78;2.30;;;;;;;;;;5014790;28;20029;-84
2021/10/01 08:39:50;;;;;;;6.13;3.05;;;;;;;;;;5028419;28;20022;-86
2021/10/01 08:42:17;;;;;;;3.33;3.13;;;;;;;;;;5017260;28;20037;-85
2021/10/01 08:44:42;;;;;;;2.80;2.60;;;;;;;;;;5028544;28;20083;-85
2021/10/01 08:47:10;;;;;;;3.20;2.42;;;;;;;;;;5015853;28;20035;-86
2021/10/01 08:49:37;;;;;;;2.63;2.42;;;;;;;;;;5013965;28;20022;-84
2021/10/01 08:52:03;;;;;;;3.42;2.70;;;;;;;;;;5016227;28;20041;-85
2021/10/01 08:54:28;;;;;;;3.20;2.65;;;;;;;;;;5011376;28;20041;-84
2021/10/01 08:56:54;;;;;;;3.53;2.47;;;;;;;;;;5013163;28;20018;-85
2021/10/01 08:59:21;;;;;;;3.38;2.92;;;;;;;;;;5015101;28;20025;-85
2021/10/01 09:01:47;;;;;;;3.42;2.47;;;;;;;;;;5036584;28;20061;-85
2021/10/01 09:04:13;;;;;;;3.35;2.45;;;;;;;;;;5057288;28;20040;-84
2021/10/01 09:06:39;;;;;;;2.90;2.70;;;;;;;;;;5056594;28;20420;-86
2021/10/01 09:09:05;;;;;;;2.53;2.33;;;;;;;;;;5055539;28;20043;-86
2021/10/01 09:11:33;;;;;;;3.10;2.22;;;;;;;;;;5058835;28;20131;-86
2021/10/01 09:14:08;;;;;;;2.35;2.05;;;;;;;;;;5057302;28;20075;-86
2021/10/01 09:16:37;;;;;;;4.50;2.45;;;;;;;;;;5056843;28;20056;-85
2021/10/01 09:19:03;;;;;;;2.35;1.90;;;;;;;;;;5035471;28;20071;-84
2021/10/01 09:21:30;;;;;;;3.97;1.98;;;;;;;;;;5063609;28;20319;-84
2021/10/01 09:24:07;;;;;;;2.00;1.80;;;;;;;;;;5056546;28;20051;-85
2021/10/01 09:26:34;;;;;;;1.95;1.77;;;;;;;;;;5050259;28;20056;-86
2021/10/01 09:29:07;;;;;;;1.92;1.80;;;;;;;;;;5051752;28;20035;-85
2021/10/01 09:31:32;;;;;;;3.38;1.75;;;;;;;;;;5054242;28;20102;-84
2021/10/01 09:33:58;;;;;;;2.30;2.10;;;;;;;;;;5051843;28;20025;-85
2021/10/01 09:36:25;;;;;;;2.58;1.80;;;;;;;;;;5051091;28;20078;-86
2021/10/01 09:38:54;;;;;;;4.30;2.75;;;;;;;;;;5051580;28;20048;-87
2021/10/01 09:41:25;;;;;;;2.67;1.42;;;;;;;;;;5055139;28;20353;-87
2021/10/01 09:44:04;;;;;;;1.40;1.40;;;;;;;;;;5059376;28;20017;-87
2021/10/01 09:46:33;;;;;;;2.58;1.65;;;;;;;;;;5055575;28;20059;-86
2021/10/01 09:48:59;;;;;;;1.60;1.50;;;;;;;;;;5066323;28;20362;-87
2021/10/01 09:51:24;;;;;;;1.30;1.23;;;;;;;;;;5051378;28;20060;-86
2021/10/01 09:53:50;;;;;;;4.00;2.33;;;;;;;;;;5059351;28;20017;-87
2021/10/01 09:56:26;;;;;;;3.00;1.55;;;;;;;;;;5075731;28;20043;-86
2021/10/01 09:59:08;;;;;;;1.42;1.40;;;;;;;;;;5067117;28;20017;-88
2021/10/01 10:01:34;;;;;;;3.70;1.40;;;;;;;;;;5060527;28;20060;-86
2021/10/01 10:04:12;;;;;;;1.45;1.42;;;;;;;;;;5069312;28;20053;-86
2021/10/01 10:06:41;;;;;;;1.52;1.30;;;;;;;;;;5069515;28;20021;-87
2021/10/01 10:09:07;;;;;;;2.35;1.63;;;;;;;;;;5071202;28;20028;-87
2021/10/01 10:11:37;;;;;;;1.60;1.50;;;;;;;;;;5073337;28;20046;-87
2021/10/01 10:14:07;;;;;;;1.67;1.45;;;;;;;;;;5070856;28;20021;-88
2021/10/01 10:16:32;;;;;;;7.03;1.33;;;;;;;;;;5065776;28;20465;-88
2021/10/01 10:18:58;;;;;;;4.20;1.48;;;;;;;;;;5069744;28;20088;-87
2021/10/01 10:21:27;;;;;;;1.30;1.20;;;;;;;;;;5065996;28;20032;-87
2021/10/01 10:23:53;;;;;;;1.30;1.25;;;;;;;;;;5054170;28;20025;-88
2021/10/01 10:26:19;;;;;;;1.60;1.50;;;;;;;;;;5054310;28;20024;-87
2021/10/01 10:28:45;;;;;;;2.47;1.75;;;;;;;;;;5040938;28;20380;-87
2021/10/01 10:31:12;;;;;;;1.15;1.05;;;;;;;;;;5053662;28;20029;-88
2021/10/01 10:33:38;;;;;;;1.77;1.45;;;;;;;;;;5038985;28;20033;-88
2021/10/01 10:36:22;;;;;;;1.13;1.13;;;;;;;;;;5038934;28;20151;-87
2021/10/01 10:38:47;;;;;;;1.00;1.00;;;;;;;;;;5050928;28;20029;-89
2021/10/01 10:41:28;;;;;;;0.90;0.90;;;;;;;;;;5059219;28;20495;-87
2021/10/01 10:43:54;;;;;;;1.30;1.30;;;;;;;;;;5041108;28;20021;-87
2021/10/01 10:46:34;;;;;;;1.45;1.45;;;;;;;;;;5056046;28;20444;-88
2021/10/01 10:49:21;;;;;;;1.42;1.10;;;;;;;;;;5039849;28;20021;-87
2021/10/01 10:52:08;;;;;;;4.80;1.33;;;;;;;;;;5057133;28;20025;-87
2021/10/01 10:54:35;;;;;;;1.60;1.50;;;;;;;;;;5052932;28;20357;-87
2021/10/01 10:57:23;;;;;;;1.13;1.10;;;;;;;;;;5056549;28;20027;-87
2021/10/01 10:59:54;;;;;;;1.50;1.50;;;;;;;;;;5051120;28;20575;-88
2021/10/01 11:03:04;;;;;;;2.38;1.30;;;;;;;;;;5047807;28;20065;-88
2021/10/01 11:05:27;;;;;;;1.58;1.48;;;;;;;;;;5041868;28;20125;-87
2021/10/01 11:08:01;;;;;;;1.27;1.10;;;;;;;;;;5059779;28;20044;-86
2021/10/01 11:10:49;;;;;;;1.08;1.08;;;;;;;;;;5060047;28;20076;-86
2021/10/01 11:13:24;;;;;;;1.15;1.13;;;;;;;;;;5059674;28;20409;-87
2021/10/01 11:16:08;;;;;;;3.53;1.10;;;;;;;;;;5057926;28;20036;-87
2021/10/01 11:18:53;;;;;;;1.58;1.45;;;;;;;;;;5041687;28;20062;-86
2021/10/01 11:21:25;;;;;;;1.10;1.10;;;;;;;;;;5058563;28;20033;-85
2021/10/01 11:23:59;;;;;;;1.10;1.10;;;;;;;;;;5056346;28;20117;-86
2021/10/01 11:26:26;;;;;;;2.72;1.30;;;;;;;;;;5039811;28;20017;-86
2021/10/01 11:28:52;;;;;;;7.75;3.05;;;;;;;;;;5056549;28;20057;-86
2021/10/01 11:31:18;;;;;;;1.30;1.20;;;;;;;;;;5057892;28;20028;-86
2021/10/01 11:33:51;;;;;;;1.20;1.10;;;;;;;;;;5038381;28;20376;-87
2021/10/01 11:36:25;;;;;;;12.32;11.15;;;;;;;;;;5051078;28;20021;-87
2021/10/01 11:38:50;;;;;;;7.57;6.95;;;;;;;;;;5058606;28;20086;-87
2021/10/01 11:41:16;;;;;;;1.88;1.77;;;;;;;;;;5057778;28;20024;-86
2021/10/01 11:43:46;;;;;;;1.05;1.05;;;;;;;;;;5057340;28;20372;-86
2021/10/01 11:46:12;;;;;;;3.65;1.10;;;;;;;;;;5050794;28;20029;-86
2021/10/01 11:48:39;;;;;;;2.45;1.60;;;;;;;;;;5058576;28;20025;-86
2021/10/01 11:51:09;;;;;;;1.10;1.10;;;;;;;;;;5056908;28;20461;-87
2021/10/01 11:53:36;;;;;;;2.40;1.38;;;;;;;;;;5053899;28;20476;-87
2021/10/01 11:56:03;;;;;;;2.85;1.42;;;;;;;;;;5031979;28;20071;-87
2021/10/01 11:58:30;;;;;;;1.83;1.05;;;;;;;;;;5052819;28;20139;-87
2021/10/01 12:00:55;;;;;;;1.50;1.35;;;;;;;;;;5052015;28;20132;-87
2021/10/01 12:03:21;;;;;;;2.47;1.15;;;;;;;;;;5054587;28;20108;-86
2021/10/01 12:05:47;;;;;;;1.42;1.20;;;;;;;;;;5040958;28;20037;-86
2021/10/01 12:08:14;;;;;;;2.45;1.40;;;;;;;;;;5055110;28;20040;-89
2021/10/01 12:10:52;;;;;;;3.53;1.10;;;;;;;;;;5067719;28;20032;-92
2021/10/01 12:13:22;;;;;;;4.22;1.27;;;;;;;;;;5064467;28;20104;-89
2021/10/01 12:16:03;;;;;;;1.58;1.48;;;;;;;;;;5044981;28;20472;-90
2021/10/01 12:18:41;;;;;;;1.50;1.40;;;;;;;;;;5057326;28;20033;-89
2021/10/01 12:21:11;;;;;;;2.55;2.35;;;;;;;;;;5074153;28;20040;-92
2021/10/01 12:23:38;;;;;;;6.18;4.68;;;;;;;;;;5051742;28;20481;-88
2021/10/01 12:26:21;;;;;;;5.50;2.95;;;;;;;;;;5042862;28;20057;-87
2021/10/01 12:28:57;;;;;;;8.45;7.40;;;;;;;;;;5039023;28;20028;-87
2021/10/01 12:31:29;;;;;;;6.50;4.38;;;;;;;;;;5051774;28;20035;-86
2021/10/01 12:34:06;;;;;;;4.00;1.70;;;;;;;;;;5066561;28;20380;-86
2021/10/01 12:36:33;;;;;;;1.58;1.38;;;;;;;;;;5041109;28;20033;-87
2021/10/01 12:39:05;;;;;;;3.67;1.92;;;;;;;;;;5072671;28;20029;-85
2021/10/01 12:41:30;;;;;;;3.25;2.50;;;;;;;;;;5075745;28;20040;-86
2021/10/01 12:43:58;;;;;;;1.45;1.35;;;;;;;;;;5075590;28;20016;-87
2021/10/01 12:46:45;;;;;;;1.70;1.45;;;;;;;;;;5072630;28;20025;-86
2021/10/01 12:49:32;;;;;;;5.15;2.97;;;;;;;;;;5051989;28;20025;-88
2021/10/01 12:52:15;;;;;;;4.65;4.13;;;;;;;;;;5052883;28;20028;-86
2021/10/01 12:54:44;;;;;;;2.28;2.13;;;;;;;;;;5056158;28;20479;-86
2021/10/01 12:57:14;;;;;;;1.40;1.30;;;;;;;;;;5038338;28;20021;-86
2021/10/01 12:59:41;;;;;;;1.45;1.30;;;;;;;;;;5054256;28;20364;-87
2021/10/01 13:02:07;;;;;;;1.83;1.42;;;;;;;;;;5034515;28;20046;-87
2021/10/01 13:04:44;;;;;;;5.15;4.03;;;;;;;;;;5013931;28;20041;-87
2021/10/01 13:07:29;;;;;;;1.80;1.70;;;;;;;;;;5014262;28;20542;-87
2021/10/01 13:09:56;;;;;;;1.23;1.20;;;;;;;;;;5025960;28;20034;-87
2021/10/01 13:12:27;;;;;;;2.15;2.00;;;;;;;;;;5015046;28;20435;-87
2021/10/01 13:15:11;;;;;;;1.88;1.40;;;;;;;;;;5019768;28;20053;-87
2021/10/01 13:17:39;;;;;;;2.30;2.05;;;;;;;;;;5018424;28;20458;-87
2021/10/01 13:20:07;;;;;;;1.65;1.55;;;;;;;;;;5017139;28;20488;-87
2021/10/01 13:22:51;;;;;;;3.50;2.33;;;;;;;;;;5016812;28;20160;-87
2021/10/01 13:25:26;;;;;;;2.17;1.20;;;;;;;;;;5033162;28;20051;-88
2021/10/01 13:27:53;;;;;;;1.50;1.40;;;;;;;;;;5032461;28;20025;-88
2021/10/01 13:30:19;;;;;;;1.30;1.20;;;;;;;;;;5017091;28;20053;-86
2021/10/01 13:32:44;;;;;;;1.20;1.20;;;;;;;;;;5016669;28;20034;-86
2021/10/01 13:35:11;;;;;;;2.13;1.65;;;;;;;;;;5021918;28;20017;-89
2021/10/01 13:37:59;;;;;;;3.33;1.02;;;;;;;;;;5048087;28;20045;-87
2021/10/01 13:40:46;;;;;;;1.27;1.13;;;;;;;;;;5016917;28;20026;-89
2021/10/01 13:43:11;;;;;;;2.10;1.50;;;;;;;;;;5031661;28;20480;-87
2021/10/01 13:45:38;;;;;;;1.52;1.52;;;;;;;;;;5031161;28;20025;-86
2021/10/01 13:48:04;;;;;;;2.30;1.38;;;;;;;;;;5015616;28;20446;-86
2021/10/01 13:50:29;;;;;;;1.05;1.02;;;;;;;;;;5014203;28;20029;-86
2021/10/01 13:52:54;;;;;;;1.63;1.00;;;;;;;;;;5016040;28;20034;-86
2021/10/01 13:55:19;;;;;;;3.35;1.02;;;;;;;;;;5015731;28;20536;-86
2021/10/01 13:57:45;;;;;;;1.80;1.40;;;;;;;;;;5029948;28;20033;-86
2021/10/01 14:00:12;;;;;;;1.95;1.40;;;;;;;;;;5013710;28;20026;-86
2021/10/01 14:02:39;;;;;;;1.65;0.98;;;;;;;;;;5040249;28;20102;-86
2021/10/01 14:05:05;;;;;;;1.70;1.30;;;;;;;;;;5036488;28;20028;-85
2021/10/01 14:07:31;;;;;;;3.45;1.63;;;;;;;;;;5053698;28;20059;-85
2021/10/01 14:09:59;;;;;;;2.78;1.27;;;;;;;;;;5034649;28;20060;-86
2021/10/01 14:12:28;;;;;;;1.58;1.40;;;;;;;;;;5069503;28;20028;-85
2021/10/01 14:14:54;;;;;;;1.50;1.23;;;;;;;;;;5067949;28;20005;-86
2021/10/01 14:17:19;;;;;;;1.48;1.38;;;;;;;;;;5074025;28;20009;-86
2021/10/01 14:19:48;;;;;;;1.00;1.00;;;;;;;;;;5073034;28;20032;-86
2021/10/01 14:22:13;;;;;;;1.45;1.38;;;;;;;;;;5060617;28;20035;-86
2021/10/01 14:24:39;;;;;;;1.23;1.20;;;;;;;;;;5059142;28;20498;-86
2021/10/01 14:27:06;;;;;;;2.25;1.40;;;;;;;;;;5073951;28;20124;-86
2021/10/01 14:29:32;;;;;;;1.92;1.00;;;;;;;;;;5060267;28;20103;-86
2021/10/01 14:31:57;;;;;;;1.50;1.30;;;;;;;;;;5060014;28;20037;-86
2021/10/01 14:34:25;;;;;;;1.27;1.27;;;;;;;;;;5059805;28;20386;-86
2021/10/01 14:36:52;;;;;;;2.90;1.77;;;;;;;;;;5052432;28;20040;-86
2021/10/01 14:39:18;;;;;;;1.45;1.17;;;;;;;;;;5052733;28;20032;-86
2021/10/01 14:41:43;;;;;;;5.32;1.17;;;;;;;;;;5053031;28;20104;-86
2021/10/01 14:44:08;;;;;;;1.30;1.30;;;;;;;;;;5053999;28;20025;-86
2021/10/01 14:46:35;;;;;;;2.03;1.40;;;;;;;;;;5071621;28;20021;-86
2021/10/01 14:49:00;;;;;;;1.52;1.42;;;;;;;;;;5068716;28;20037;-87
2021/10/01 14:51:32;;;;;;;1.35;1.13;;;;;;;;;;5054523;28;20026;-85
2021/10/01 14:53:57;;;;;;;1.45;1.35;;;;;;;;;;5039389;28;20082;-86
2021/10/01 14:56:23;;;;;;;1.30;1.30;;;;;;;;;;5055399;28;20021;-85
2021/10/01 14:58:48;;;;;;;4.35;1.40;;;;;;;;;;5059643;28;20406;-86
2021/10/01 15:01:14;;;;;;;2.35;2.08;;;;;;;;;;5052521;28;20049;-86
2021/10/01 15:03:40;;;;;;;3.63;1.90;;;;;;;;;;5059264;28;20025;-86
2021/10/01 15:06:07;;;;;;;1.63;1.52;;;;;;;;;;5039550;28;20040;-86
2021/10/01 15:08:32;;;;;;;4.97;1.50;;;;;;;;;;5054290;28;20487;-87
2021/10/01 15:10:59;;;;;;;2.08;1.73;;;;;;;;;;5058557;28;20025;-87
2021/10/01 15:13:28;;;;;;;1.60;1.50;;;;;;;;;;5067448;28;20061;-85
2021/10/01 15:15:53;;;;;;;2.97;1.50;;;;;;;;;;5056844;28;20029;-85
2021/10/01 15:18:19;;;;;;;2.25;1.83;;;;;;;;;;5051231;28;20028;-85
2021/10/01 15:20:44;;;;;;;2.00;1.90;;;;;;;;;;5061823;28;20078;-86
2021/10/01 15:23:11;;;;;;;1.92;1.83;;;;;;;;;;5059868;28;20048;-86
2021/10/01 15:25:41;;;;;;;1.80;1.60;;;;;;;;;;5060153;28;20021;-86
2021/10/01 15:28:07;;;;;;;2.78;1.60;;;;;;;;;;5077378;28;20028;-86
2021/10/01 15:30:32;;;;;;;1.70;1.60;;;;;;;;;;5062174;28;20029;-86
2021/10/01 15:32:59;;;;;;;1.70;1.60;;;;;;;;;;5040494;28;20078;-86
2021/10/01 15:35:24;;;;;;;3.53;1.50;;;;;;;;;;5056014;28;20029;-86
2021/10/01 15:37:51;;;;;;;3.47;1.65;;;;;;;;;;5039944;28;20031;-85
2021/10/01 15:40:20;;;;;;;2.40;2.13;;;;;;;;;;5040014;28;20131;-86
2021/10/01 15:42:46;;;;;;;1.95;1.80;;;;;;;;;;5041236;28;20059;-86
2021/10/01 15:45:14;;;;;;;1.58;1.45;;;;;;;;;;5058136;28;20020;-86
2021/10/01 15:47:39;;;;;;;2.00;1.90;;;;;;;;;;5057956;28;20024;-86
2021/10/01 15:50:05;;;;;;;4.72;1.42;;;;;;;;;;5059090;28;20021;-85
2021/10/01 15:52:30;;;;;;;1.80;1.70;;;;;;;;;;5058417;28;20033;-86
2021/10/01 15:54:57;;;;;;;2.38;2.17;;;;;;;;;;5057765;28;20028;-86
2021/10/01 15:57:22;;;;;;;2.67;2.47;;;;;;;;;;5058177;28;20032;-86
2021/10/01 15:59:48;;;;;;;2.65;1.70;;;;;;;;;;5046794;28;20016;-85
2021/10/01 16:02:13;;;;;;;1.98;1.88;;;;;;;;;;5078403;28;20113;-86
2021/10/01 16:04:39;;;;;;;1.95;1.80;;;;;;;;;;5073825;28;20041;-86
2021/10/01 16:07:04;;;;;;;1.98;1.80;;;;;;;;;;5058771;28;20013;-86
2021/10/01 16:09:30;;;;;;;2.63;1.92;;;;;;;;;;5059241;28;20020;-86
2021/10/01 16:11:58;;;;;;;1.90;1.80;;;;;;;;;;5059755;28;20491;-87
2021/10/01 16:14:24;;;;;;;1.50;1.50;;;;;;;;;;5061313;28;20025;-86
2021/10/01 16:16:51;;;;;;;1.80;1.70;;;;;;;;;;5059119;28;20039;-86
2021/10/01 16:19:17;;;;;;;1.75;1.50;;;;;;;;;;5042292;28;20029;-86
2021/10/01 16:21:43;;;;;;;1.63;1.60;;;;;;;;;;5061014;28;20020;-86